sensor_id;sensor_type;location;lat;lon;timestamp;temperature;humidity
27858;DHT22;16852;51.446;6.528;2022-12-05T01:13:24;3.50;99.90
27858;DHT22;16852;51.446;6.528;2022-12-05T01:15:25;3.40;99.90
27858;DHT22;16852;51.446;6.528;2022-12-05T01:17:25;3.40;99.90
27858;DHT22;16852;51.446;6.528;2022-12-05T01:19:28;3.50;99.90
27858;DHT22;16852;51.446;6.528;2022-12-05T01:21:29;3.50;99.90
27858;DHT22;16852;51.446;6.528;2022-12-05T01:23:30;3.50;99.90
27858;DHT22;16852;51.446;6.528;2022-12-05T01:25:30;3.60;99.90
27858;DHT22;16852;51.446;6.528;2022-12-05T01:27:31;3.60;99.90
27858;DHT22;16852;51.446;6.528;2022-12-05T01:29:32;3.60;99.90
27858;DHT22;16852;51.446;6.528;2022-12-05T01:31:34;3.60;99.90
27858;DHT22;16852;51.446;6.528;2022-12-05T01:33:35;3.70;99.90
27858;DHT22;16852;51.446;6.528;2022-12-05T01:35:37;3.70;99.90
27858;DHT22;16852;51.446;6.528;2022-12-05T01:37:39;3.80;99.90
27858;DHT22;16852;51.446;6.528;2022-12-05T01:39:39;3.80;99.90
27858;DHT22;16852;51.446;6.528;2022-12-05T01:41:45;3.80;99.90
27858;DHT22;16852;51.446;6.528;2022-12-05T01:45:57;3.80;99.90
27858;DHT22;16852;51.446;6.528;2022-12-05T01:48:00;3.80;99.90
27858;DHT22;16852;51.446;6.528;2022-12-05T01:50:02;3.80;99.90
27858;DHT22;16852;51.446;6.528;2022-12-05T01:52:18;3.80;99.90
27858;DHT22;16852;51.446;6.528;2022-12-05T01:54:21;3.90;99.90
27858;DHT22;16852;51.446;6.528;2022-12-05T01:56:22;3.80;99.90
27858;DHT22;16852;51.446;6.528;2022-12-05T01:58:26;3.90;99.90
27858;DHT22;16852;51.446;6.528;2022-12-05T02:00:29;3.80;99.90
27858;DHT22;16852;51.446;6.528;2022-12-05T02:02:30;3.80;99.90
27858;DHT22;16852;51.446;6.528;2022-12-05T02:04:37;3.80;99.90
27858;DHT22;16852;51.446;6.528;2022-12-05T02:06:39;4.00;99.90
27858;DHT22;16852;51.446;6.528;2022-12-05T02:08:40;3.90;99.90
27858;DHT22;16852;51.446;6.528;2022-12-05T02:10:47;4.00;99.90
27858;DHT22;16852;51.446;6.528;2022-12-05T02:12:49;4.10;99.90
27858;DHT22;16852;51.446;6.528;2022-12-05T02:15:05;4.00;99.90
27858;DHT22;16852;51.446;6.528;2022-12-05T02:20:04;4.00;99.90
27858;DHT22;16852;51.446;6.528;2022-12-05T02:22:26;3.90;99.90
27858;DHT22;16852;51.446;6.528;2022-12-05T02:31:43;4.00;99.90
27858;DHT22;16852;51.446;6.528;2022-12-05T02:33:55;3.90;99.90
27858;DHT22;16852;51.446;6.528;2022-12-05T02:38:26;4.10;99.90
27858;DHT22;16852;51.446;6.528;2022-12-05T02:40:42;4.10;99.90
27858;DHT22;16852;51.446;6.528;2022-12-05T02:43:16;4.20;99.90
27858;DHT22;16852;51.446;6.528;2022-12-05T02:45:20;4.20;99.90
27858;DHT22;16852;51.446;6.528;2022-12-05T02:47:26;4.30;99.90
27858;DHT22;16852;51.446;6.528;2022-12-05T02:49:31;4.30;99.90
27858;DHT22;16852;51.446;6.528;2022-12-05T02:51:37;4.40;99.90
27858;DHT22;16852;51.446;6.528;2022-12-05T02:53:39;4.50;99.90
27858;DHT22;16852;51.446;6.528;2022-12-05T02:55:42;4.50;99.90
27858;DHT22;16852;51.446;6.528;2022-12-05T02:57:44;4.50;99.90
27858;DHT22;16852;51.446;6.528;2022-12-05T02:59:46;4.40;99.90
27858;DHT22;16852;51.446;6.528;2022-12-05T03:01:47;4.50;99.90
27858;DHT22;16852;51.446;6.528;2022-12-05T03:03:49;4.50;99.90
27858;DHT22;16852;51.446;6.528;2022-12-05T03:06:05;4.50;99.90
27858;DHT22;16852;51.446;6.528;2022-12-05T03:08:10;4.50;99.90
27858;DHT22;16852;51.446;6.528;2022-12-05T03:10:14;4.50;99.90
27858;DHT22;16852;51.446;6.528;2022-12-05T03:12:30;4.50;99.90
27858;DHT22;16852;51.446;6.528;2022-12-05T03:14:41;4.50;99.90
27858;DHT22;16852;51.446;6.528;2022-12-05T03:16:48;4.60;99.90
27858;DHT22;16852;51.446;6.528;2022-12-05T03:18:54;4.50;99.90
27858;DHT22;16852;51.446;6.528;2022-12-05T03:21:01;4.50;99.90
27858;DHT22;16852;51.446;6.528;2022-12-05T03:23:15;4.30;99.90
27858;DHT22;16852;51.446;6.528;2022-12-05T03:25:17;4.30;99.90
27858;DHT22;16852;51.446;6.528;2022-12-05T03:27:28;4.40;99.90
27858;DHT22;16852;51.446;6.528;2022-12-05T03:29:35;4.20;99.90
27858;DHT22;16852;51.446;6.528;2022-12-05T03:31:45;4.20;99.90
27858;DHT22;16852;51.446;6.528;2022-12-05T03:33:50;4.10;99.90
27858;DHT22;16852;51.446;6.528;2022-12-05T03:36:06;4.20;99.90
27858;DHT22;16852;51.446;6.528;2022-12-05T03:38:35;4.20;99.90
27858;DHT22;16852;51.446;6.528;2022-12-05T03:45:25;4.10;99.90
27858;DHT22;16852;51.446;6.528;2022-12-05T03:47:38;3.90;99.90
27858;DHT22;16852;51.446;6.528;2022-12-05T03:49:51;3.80;99.90
27858;DHT22;16852;51.446;6.528;2022-12-05T03:54:17;3.90;99.90
27858;DHT22;16852;51.446;6.528;2022-12-05T03:56:36;3.80;99.90
27858;DHT22;16852;51.446;6.528;2022-12-05T03:58:49;3.90;99.90
27858;DHT22;16852;51.446;6.528;2022-12-05T04:00:53;3.80;99.90
27858;DHT22;16852;51.446;6.528;2022-12-05T04:05:54;3.70;99.90
27858;DHT22;16852;51.446;6.528;2022-12-05T04:08:00;3.70;99.90
27858;DHT22;16852;51.446;6.528;2022-12-05T04:10:10;3.60;99.90
27858;DHT22;16852;51.446;6.528;2022-12-05T04:12:21;3.50;99.90
27858;DHT22;16852;51.446;6.528;2022-12-05T04:14:31;3.50;99.90
27858;DHT22;16852;51.446;6.528;2022-12-05T04:16:40;3.50;99.90
27858;DHT22;16852;51.446;6.528;2022-12-05T04:19:06;3.60;99.90
27858;DHT22;16852;51.446;6.528;2022-12-05T04:21:10;3.70;99.90
27858;DHT22;16852;51.446;6.528;2022-12-05T04:23:30;3.70;99.90
27858;DHT22;16852;51.446;6.528;2022-12-05T04:26:01;3.80;99.90
27858;DHT22;16852;51.446;6.528;2022-12-05T04:30:09;3.90;99.90
27858;DHT22;16852;51.446;6.528;2022-12-05T04:32:12;4.00;99.90
27858;DHT22;16852;51.446;6.528;2022-12-05T04:34:14;4.10;99.90
27858;DHT22;16852;51.446;6.528;2022-12-05T04:39:03;4.10;99.90
27858;DHT22;16852;51.446;6.528;2022-12-05T04:41:15;4.20;99.90
27858;DHT22;16852;51.446;6.528;2022-12-05T04:43:17;4.30;99.90
27858;DHT22;16852;51.446;6.528;2022-12-05T04:45:20;4.30;99.90
27858;DHT22;16852;51.446;6.528;2022-12-05T04:47:31;4.30;99.90
27858;DHT22;16852;51.446;6.528;2022-12-05T04:49:35;4.40;99.90
27858;DHT22;16852;51.446;6.528;2022-12-05T04:51:38;4.40;99.90
27858;DHT22;16852;51.446;6.528;2022-12-05T04:53:40;4.40;99.90
27858;DHT22;16852;51.446;6.528;2022-12-05T04:55:46;4.40;99.90
27858;DHT22;16852;51.446;6.528;2022-12-05T04:57:58;4.40;99.90
27858;DHT22;16852;51.446;6.528;2022-12-05T05:00:00;4.50;99.90
27858;DHT22;16852;51.446;6.528;2022-12-05T05:02:07;4.50;99.90
27858;DHT22;16852;51.446;6.528;2022-12-05T05:04:16;4.50;99.90
27858;DHT22;16852;51.446;6.528;2022-12-05T05:06:18;4.60;99.90
27858;DHT22;16852;51.446;6.528;2022-12-05T05:08:24;4.60;99.90
27858;DHT22;16852;51.446;6.528;2022-12-05T05:10:38;4.60;99.90
27858;DHT22;16852;51.446;6.528;2022-12-05T05:12:41;4.70;99.90
27858;DHT22;16852;51.446;6.528;2022-12-05T05:14:42;4.70;99.90
27858;DHT22;16852;51.446;6.528;2022-12-05T05:16:42;4.70;99.90
27858;DHT22;16852;51.446;6.528;2022-12-05T05:18:48;4.70;99.90
27858;DHT22;16852;51.446;6.528;2022-12-05T05:20:49;4.70;99.90
27858;DHT22;16852;51.446;6.528;2022-12-05T05:22:51;4.70;99.90
27858;DHT22;16852;51.446;6.528;2022-12-05T05:24:52;4.70;99.90
27858;DHT22;16852;51.446;6.528;2022-12-05T05:26:52;4.70;99.90
27858;DHT22;16852;51.446;6.528;2022-12-05T05:28:54;4.80;99.90
27858;DHT22;16852;51.446;6.528;2022-12-05T05:31:01;4.70;99.90
27858;DHT22;16852;51.446;6.528;2022-12-05T05:33:02;4.70;99.90
27858;DHT22;16852;51.446;6.528;2022-12-05T05:35:03;4.70;99.90
27858;DHT22;16852;51.446;6.528;2022-12-05T05:37:04;4.70;99.90
27858;DHT22;16852;51.446;6.528;2022-12-05T05:39:05;4.70;99.90
27858;DHT22;16852;51.446;6.528;2022-12-05T05:41:15;4.70;99.90
27858;DHT22;16852;51.446;6.528;2022-12-05T05:43:16;4.70;99.90
27858;DHT22;16852;51.446;6.528;2022-12-05T05:45:17;4.70;99.90
27858;DHT22;16852;51.446;6.528;2022-12-05T05:47:18;4.70;99.90
27858;DHT22;16852;51.446;6.528;2022-12-05T05:49:18;4.70;99.90
27858;DHT22;16852;51.446;6.528;2022-12-05T05:51:21;4.70;99.90
27858;DHT22;16852;51.446;6.528;2022-12-05T05:53:22;4.80;99.90
27858;DHT22;16852;51.446;6.528;2022-12-05T05:55:22;4.80;99.90
27858;DHT22;16852;51.446;6.528;2022-12-05T05:57:23;4.80;99.90
27858;DHT22;16852;51.446;6.528;2022-12-05T05:59:24;4.60;99.90
27858;DHT22;16852;51.446;6.528;2022-12-05T06:01:25;4.70;99.90
27858;DHT22;16852;51.446;6.528;2022-12-05T06:03:26;4.70;99.90
27858;DHT22;16852;51.446;6.528;2022-12-05T06:05:27;4.70;99.90
27858;DHT22;16852;51.446;6.528;2022-12-05T06:07:27;4.70;99.90
27858;DHT22;16852;51.446;6.528;2022-12-05T06:09:28;4.70;99.90
27858;DHT22;16852;51.446;6.528;2022-12-05T06:11:30;4.70;99.90
27858;DHT22;16852;51.446;6.528;2022-12-05T06:13:31;4.70;99.90
27858;DHT22;16852;51.446;6.528;2022-12-05T06:15:32;4.70;99.90
27858;DHT22;16852;51.446;6.528;2022-12-05T06:17:37;4.80;99.90
27858;DHT22;16852;51.446;6.528;2022-12-05T06:19:38;4.80;99.90
27858;DHT22;16852;51.446;6.528;2022-12-05T06:22:01;4.80;99.90
27858;DHT22;16852;51.446;6.528;2022-12-05T06:24:16;4.80;99.90
27858;DHT22;16852;51.446;6.528;2022-12-05T06:26:26;4.80;99.90
27858;DHT22;16852;51.446;6.528;2022-12-05T06:28:32;4.80;99.90
27858;DHT22;16852;51.446;6.528;2022-12-05T06:30:54;4.80;99.90
27858;DHT22;16852;51.446;6.528;2022-12-05T06:33:10;4.80;99.90
27858;DHT22;16852;51.446;6.528;2022-12-05T06:35:11;4.80;99.90
27858;DHT22;16852;51.446;6.528;2022-12-05T06:37:15;4.80;99.90
27858;DHT22;16852;51.446;6.528;2022-12-05T06:39:15;4.80;99.90
27858;DHT22;16852;51.446;6.528;2022-12-05T06:41:18;4.90;99.90
27858;DHT22;16852;51.446;6.528;2022-12-05T06:43:19;4.90;99.90
27858;DHT22;16852;51.446;6.528;2022-12-05T06:45:19;4.90;99.90
27858;DHT22;16852;51.446;6.528;2022-12-05T06:47:20;5.00;99.90
27858;DHT22;16852;51.446;6.528;2022-12-05T06:49:21;5.00;99.90
27858;DHT22;16852;51.446;6.528;2022-12-05T06:51:23;5.00;99.90
27858;DHT22;16852;51.446;6.528;2022-12-05T06:53:24;5.00;99.90
27858;DHT22;16852;51.446;6.528;2022-12-05T06:55:24;5.00;99.90
27858;DHT22;16852;51.446;6.528;2022-12-05T06:57:27;5.00;99.90
27858;DHT22;16852;51.446;6.528;2022-12-05T06:59:27;5.00;99.90
27858;DHT22;16852;51.446;6.528;2022-12-05T07:01:28;5.00;99.90
27858;DHT22;16852;51.446;6.528;2022-12-05T07:03:38;4.90;99.90
27858;DHT22;16852;51.446;6.528;2022-12-05T07:05:38;4.90;99.90
27858;DHT22;16852;51.446;6.528;2022-12-05T07:07:39;4.80;99.90
27858;DHT22;16852;51.446;6.528;2022-12-05T07:09:40;4.80;99.90
27858;DHT22;16852;51.446;6.528;2022-12-05T07:11:50;4.70;99.90
27858;DHT22;16852;51.446;6.528;2022-12-05T07:13:51;4.70;99.90
27858;DHT22;16852;51.446;6.528;2022-12-05T07:15:52;4.60;99.90
27858;DHT22;16852;51.446;6.528;2022-12-05T07:17:52;4.60;99.90
27858;DHT22;16852;51.446;6.528;2022-12-05T07:19:53;4.50;99.90
27858;DHT22;16852;51.446;6.528;2022-12-05T07:21:54;4.30;99.90
27858;DHT22;16852;51.446;6.528;2022-12-05T07:23:54;4.20;99.90
27858;DHT22;16852;51.446;6.528;2022-12-05T07:25:55;4.20;99.90
27858;DHT22;16852;51.446;6.528;2022-12-05T07:27:57;4.20;99.90
27858;DHT22;16852;51.446;6.528;2022-12-05T07:29:57;4.30;99.90
27858;DHT22;16852;51.446;6.528;2022-12-05T07:31:58;4.30;99.90
27858;DHT22;16852;51.446;6.528;2022-12-05T07:33:58;4.30;99.90
27858;DHT22;16852;51.446;6.528;2022-12-05T07:36:01;4.30;99.90
27858;DHT22;16852;51.446;6.528;2022-12-05T07:38:03;4.40;99.90
27858;DHT22;16852;51.446;6.528;2022-12-05T07:40:04;4.40;99.90
27858;DHT22;16852;51.446;6.528;2022-12-05T07:42:05;4.40;99.90
27858;DHT22;16852;51.446;6.528;2022-12-05T07:44:05;4.50;99.90
27858;DHT22;16852;51.446;6.528;2022-12-05T07:46:08;4.50;99.90
27858;DHT22;16852;51.446;6.528;2022-12-05T07:48:10;4.50;99.90
27858;DHT22;16852;51.446;6.528;2022-12-05T07:50:11;4.40;99.90
27858;DHT22;16852;51.446;6.528;2022-12-05T07:52:13;4.40;99.90
27858;DHT22;16852;51.446;6.528;2022-12-05T07:54:13;4.40;99.90
27858;DHT22;16852;51.446;6.528;2022-12-05T07:56:16;4.40;99.90
27858;DHT22;16852;51.446;6.528;2022-12-05T07:58:17;4.40;99.90
27858;DHT22;16852;51.446;6.528;2022-12-05T08:00:18;4.40;99.90
27858;DHT22;16852;51.446;6.528;2022-12-05T08:02:19;4.40;99.90
27858;DHT22;16852;51.446;6.528;2022-12-05T08:04:19;4.50;99.90
27858;DHT22;16852;51.446;6.528;2022-12-05T08:06:22;4.50;99.90
27858;DHT22;16852;51.446;6.528;2022-12-05T08:08:23;4.50;99.90
27858;DHT22;16852;51.446;6.528;2022-12-05T08:10:24;4.50;99.90
27858;DHT22;16852;51.446;6.528;2022-12-05T08:12:25;4.50;99.90
27858;DHT22;16852;51.446;6.528;2022-12-05T08:14:25;4.50;99.90
27858;DHT22;16852;51.446;6.528;2022-12-05T08:16:27;4.50;99.90
27858;DHT22;16852;51.446;6.528;2022-12-05T08:18:28;4.50;99.90
27858;DHT22;16852;51.446;6.528;2022-12-05T08:20:29;4.50;99.90
27858;DHT22;16852;51.446;6.528;2022-12-05T08:22:30;4.50;99.90
27858;DHT22;16852;51.446;6.528;2022-12-05T08:24:30;4.40;99.90
27858;DHT22;16852;51.446;6.528;2022-12-05T08:26:32;4.50;99.90
27858;DHT22;16852;51.446;6.528;2022-12-05T08:28:33;4.50;99.90
27858;DHT22;16852;51.446;6.528;2022-12-05T08:30:34;4.30;99.90
27858;DHT22;16852;51.446;6.528;2022-12-05T08:32:34;4.10;99.90
27858;DHT22;16852;51.446;6.528;2022-12-05T08:34:35;3.80;99.90
27858;DHT22;16852;51.446;6.528;2022-12-05T08:36:36;3.80;99.90
27858;DHT22;16852;51.446;6.528;2022-12-05T08:38:36;3.80;99.90
27858;DHT22;16852;51.446;6.528;2022-12-05T08:40:37;3.90;99.90
27858;DHT22;16852;51.446;6.528;2022-12-05T08:42:38;3.90;99.90
27858;DHT22;16852;51.446;6.528;2022-12-05T08:44:38;3.90;99.90
27858;DHT22;16852;51.446;6.528;2022-12-05T08:46:39;3.90;99.90
27858;DHT22;16852;51.446;6.528;2022-12-05T08:48:39;3.90;99.90
27858;DHT22;16852;51.446;6.528;2022-12-05T08:50:40;3.90;99.90
27858;DHT22;16852;51.446;6.528;2022-12-05T08:52:40;3.90;99.90
27858;DHT22;16852;51.446;6.528;2022-12-05T08:54:41;3.90;99.90
27858;DHT22;16852;51.446;6.528;2022-12-05T08:56:41;4.00;99.90
27858;DHT22;16852;51.446;6.528;2022-12-05T08:58:42;4.00;99.90
27858;DHT22;16852;51.446;6.528;2022-12-05T09:00:43;4.00;99.90
27858;DHT22;16852;51.446;6.528;2022-12-05T09:02:43;4.00;99.90
27858;DHT22;16852;51.446;6.528;2022-12-05T09:04:44;4.00;99.90
27858;DHT22;16852;51.446;6.528;2022-12-05T09:06:44;4.00;99.90
27858;DHT22;16852;51.446;6.528;2022-12-05T09:08:46;4.00;99.90
27858;DHT22;16852;51.446;6.528;2022-12-05T09:10:46;4.00;99.90
27858;DHT22;16852;51.446;6.528;2022-12-05T09:12:47;4.00;99.90
27858;DHT22;16852;51.446;6.528;2022-12-05T09:14:49;4.10;99.90
27858;DHT22;16852;51.446;6.528;2022-12-05T09:16:50;4.10;99.90
27858;DHT22;16852;51.446;6.528;2022-12-05T09:18:51;4.10;99.90
27858;DHT22;16852;51.446;6.528;2022-12-05T09:20:52;4.10;99.90
27858;DHT22;16852;51.446;6.528;2022-12-05T09:22:52;4.10;99.90
27858;DHT22;16852;51.446;6.528;2022-12-05T09:24:53;4.20;99.90
27858;DHT22;16852;51.446;6.528;2022-12-05T09:26:54;4.20;99.90
27858;DHT22;16852;51.446;6.528;2022-12-05T09:28:55;4.20;99.90
27858;DHT22;16852;51.446;6.528;2022-12-05T09:31:06;4.20;99.90
27858;DHT22;16852;51.446;6.528;2022-12-05T09:33:07;4.20;99.90
27858;DHT22;16852;51.446;6.528;2022-12-05T09:35:08;4.20;99.90
27858;DHT22;16852;51.446;6.528;2022-12-05T09:37:08;4.20;99.90
27858;DHT22;16852;51.446;6.528;2022-12-05T09:39:09;4.20;99.90
27858;DHT22;16852;51.446;6.528;2022-12-05T09:41:45;4.20;99.90
27858;DHT22;16852;51.446;6.528;2022-12-05T09:45:11;4.20;99.90
27858;DHT22;16852;51.446;6.528;2022-12-05T09:47:02;4.20;99.90
27858;DHT22;16852;51.446;6.528;2022-12-05T09:49:08;4.20;99.90
27858;DHT22;16852;51.446;6.528;2022-12-05T09:51:10;4.30;99.90
27858;DHT22;16852;51.446;6.528;2022-12-05T09:53:36;4.30;99.90
27858;DHT22;16852;51.446;6.528;2022-12-05T09:55:48;4.30;99.90
27858;DHT22;16852;51.446;6.528;2022-12-05T09:57:55;4.30;99.90
27858;DHT22;16852;51.446;6.528;2022-12-05T09:59:57;4.30;99.90
27858;DHT22;16852;51.446;6.528;2022-12-05T10:05:03;4.40;99.90
27858;DHT22;16852;51.446;6.528;2022-12-05T10:07:13;4.40;99.90
27858;DHT22;16852;51.446;6.528;2022-12-05T10:09:31;4.40;99.90
27858;DHT22;16852;51.446;6.528;2022-12-05T10:14:14;4.40;99.90
27858;DHT22;16852;51.446;6.528;2022-12-05T10:16:34;4.40;99.90
27858;DHT22;16852;51.446;6.528;2022-12-05T10:18:46;4.50;99.90
27858;DHT22;16852;51.446;6.528;2022-12-05T10:20:52;4.50;99.90
27858;DHT22;16852;51.446;6.528;2022-12-05T10:23:13;4.50;99.90
27858;DHT22;16852;51.446;6.528;2022-12-05T10:25:18;4.50;99.90
27858;DHT22;16852;51.446;6.528;2022-12-05T10:27:26;4.60;99.90
27858;DHT22;16852;51.446;6.528;2022-12-05T10:29:57;4.60;99.90
27858;DHT22;16852;51.446;6.528;2022-12-05T10:32:21;4.60;99.90
27858;DHT22;16852;51.446;6.528;2022-12-05T10:34:37;4.60;99.90
27858;DHT22;16852;51.446;6.528;2022-12-05T10:36:38;4.60;99.90
27858;DHT22;16852;51.446;6.528;2022-12-05T10:38:41;4.60;99.90
27858;DHT22;16852;51.446;6.528;2022-12-05T10:40:44;4.70;99.90
27858;DHT22;16852;51.446;6.528;2022-12-05T10:42:46;4.70;99.90
27858;DHT22;16852;51.446;6.528;2022-12-05T10:44:50;4.70;99.90
27858;DHT22;16852;51.446;6.528;2022-12-05T10:46:53;4.70;99.90
27858;DHT22;16852;51.446;6.528;2022-12-05T10:48:54;4.70;99.90
27858;DHT22;16852;51.446;6.528;2022-12-05T10:50:56;4.70;99.90
27858;DHT22;16852;51.446;6.528;2022-12-05T10:52:59;4.70;99.90
27858;DHT22;16852;51.446;6.528;2022-12-05T10:55:05;4.60;99.90
27858;DHT22;16852;51.446;6.528;2022-12-05T10:57:28;4.70;99.90
27858;DHT22;16852;51.446;6.528;2022-12-05T10:59:45;4.70;99.90
27858;DHT22;16852;51.446;6.528;2022-12-05T11:03:55;4.70;99.90
27858;DHT22;16852;51.446;6.528;2022-12-05T11:05:59;4.70;99.90
27858;DHT22;16852;51.446;6.528;2022-12-05T11:07:59;4.70;99.90
27858;DHT22;16852;51.446;6.528;2022-12-05T11:10:03;4.70;99.90
27858;DHT22;16852;51.446;6.528;2022-12-05T11:14:23;4.70;99.90
27858;DHT22;16852;51.446;6.528;2022-12-05T11:16:50;4.70;99.90
27858;DHT22;16852;51.446;6.528;2022-12-05T11:18:50;4.70;99.90
27858;DHT22;16852;51.446;6.528;2022-12-05T11:20:52;4.70;99.90
27858;DHT22;16852;51.446;6.528;2022-12-05T11:22:54;4.70;99.90
27858;DHT22;16852;51.446;6.528;2022-12-05T11:24:55;4.70;99.90
27858;DHT22;16852;51.446;6.528;2022-12-05T11:26:58;4.70;99.90
27858;DHT22;16852;51.446;6.528;2022-12-05T11:28:59;4.70;99.90
27858;DHT22;16852;51.446;6.528;2022-12-05T11:31:03;4.70;99.90
27858;DHT22;16852;51.446;6.528;2022-12-05T11:33:21;4.70;99.90
27858;DHT22;16852;51.446;6.528;2022-12-05T11:35:26;4.70;99.90
27858;DHT22;16852;51.446;6.528;2022-12-05T11:37:39;4.70;99.90
27858;DHT22;16852;51.446;6.528;2022-12-05T11:39:42;4.70;99.90
27858;DHT22;16852;51.446;6.528;2022-12-05T11:46:57;4.70;99.90
27858;DHT22;16852;51.446;6.528;2022-12-05T12:02:23;4.60;99.90
27858;DHT22;16852;51.446;6.528;2022-12-05T12:09:18;4.60;99.90
27858;DHT22;16852;51.446;6.528;2022-12-05T12:11:47;4.60;99.90
27858;DHT22;16852;51.446;6.528;2022-12-05T12:18:56;4.50;99.90
27858;DHT22;16852;51.446;6.528;2022-12-05T12:23:42;4.50;99.90
27858;DHT22;16852;51.446;6.528;2022-12-05T12:37:51;4.50;99.90
27858;DHT22;16852;51.446;6.528;2022-12-05T12:40:11;4.50;99.90
27858;DHT22;16852;51.446;6.528;2022-12-05T12:42:26;4.50;99.90
27858;DHT22;16852;51.446;6.528;2022-12-05T12:46:53;4.40;99.90
27858;DHT22;16852;51.446;6.528;2022-12-05T12:51:16;4.40;99.90
27858;DHT22;16852;51.446;6.528;2022-12-05T12:58:14;4.40;99.90
27858;DHT22;16852;51.446;6.528;2022-12-05T13:02:46;4.40;99.90
27858;DHT22;16852;51.446;6.528;2022-12-05T13:05:30;4.40;99.90
27858;DHT22;16852;51.446;6.528;2022-12-05T13:07:39;4.40;99.90
27858;DHT22;16852;51.446;6.528;2022-12-05T13:09:56;4.40;99.90
27858;DHT22;16852;51.446;6.528;2022-12-05T13:12:04;4.40;99.90
27858;DHT22;16852;51.446;6.528;2022-12-05T13:14:12;4.40;99.90
27858;DHT22;16852;51.446;6.528;2022-12-05T13:16:31;4.40;99.90
27858;DHT22;16852;51.446;6.528;2022-12-05T13:18:34;4.40;99.90
27858;DHT22;16852;51.446;6.528;2022-12-05T13:20:35;4.40;99.90
27858;DHT22;16852;51.446;6.528;2022-12-05T13:22:36;4.40;99.90
27858;DHT22;16852;51.446;6.528;2022-12-05T13:24:37;4.40;99.90
27858;DHT22;16852;51.446;6.528;2022-12-05T13:26:44;4.40;99.90
27858;DHT22;16852;51.446;6.528;2022-12-05T13:28:55;4.40;99.90
27858;DHT22;16852;51.446;6.528;2022-12-05T13:30:58;4.40;99.90
27858;DHT22;16852;51.446;6.528;2022-12-05T13:33:07;4.50;99.90
27858;DHT22;16852;51.446;6.528;2022-12-05T13:35:10;4.40;99.90
27858;DHT22;16852;51.446;6.528;2022-12-05T13:37:28;4.40;99.90
27858;DHT22;16852;51.446;6.528;2022-12-05T13:39:53;4.40;99.90
27858;DHT22;16852;51.446;6.528;2022-12-05T13:42:22;4.50;99.90
27858;DHT22;16852;51.446;6.528;2022-12-05T13:44:35;4.50;99.90
27858;DHT22;16852;51.446;6.528;2022-12-05T13:46:39;4.50;99.90
27858;DHT22;16852;51.446;6.528;2022-12-05T13:48:43;4.50;99.90
27858;DHT22;16852;51.446;6.528;2022-12-05T13:50:56;4.50;99.90
27858;DHT22;16852;51.446;6.528;2022-12-05T13:53:15;4.40;99.90
27858;DHT22;16852;51.446;6.528;2022-12-05T13:55:28;4.50;99.90
27858;DHT22;16852;51.446;6.528;2022-12-05T14:00:00;4.50;99.90
27858;DHT22;16852;51.446;6.528;2022-12-05T14:02:01;4.50;99.90
27858;DHT22;16852;51.446;6.528;2022-12-05T14:04:02;4.50;99.90
27858;DHT22;16852;51.446;6.528;2022-12-05T14:12:50;4.50;99.90
27858;DHT22;16852;51.446;6.528;2022-12-05T14:16:55;4.50;99.90
27858;DHT22;16852;51.446;6.528;2022-12-05T14:33:40;4.40;99.90
27858;DHT22;16852;51.446;6.528;2022-12-05T14:35:45;4.40;99.90
27858;DHT22;16852;51.446;6.528;2022-12-05T14:37:54;4.40;99.90
27858;DHT22;16852;51.446;6.528;2022-12-05T14:39:57;4.40;99.90
27858;DHT22;16852;51.446;6.528;2022-12-05T14:42:00;4.40;99.90
27858;DHT22;16852;51.446;6.528;2022-12-05T14:44:02;4.30;99.90
27858;DHT22;16852;51.446;6.528;2022-12-05T14:46:05;4.30;99.90
27858;DHT22;16852;51.446;6.528;2022-12-05T14:50:33;4.30;99.90
27858;DHT22;16852;51.446;6.528;2022-12-05T14:52:34;4.30;99.90
27858;DHT22;16852;51.446;6.528;2022-12-05T14:54:38;4.30;99.90
27858;DHT22;16852;51.446;6.528;2022-12-05T14:56:42;4.30;99.90
27858;DHT22;16852;51.446;6.528;2022-12-05T14:59:00;4.30;99.90
27858;DHT22;16852;51.446;6.528;2022-12-05T15:01:22;4.20;99.90
27858;DHT22;16852;51.446;6.528;2022-12-05T15:03:29;4.20;99.90
27858;DHT22;16852;51.446;6.528;2022-12-05T15:05:32;4.20;99.90
27858;DHT22;16852;51.446;6.528;2022-12-05T15:07:37;4.20;99.90
27858;DHT22;16852;51.446;6.528;2022-12-05T15:09:41;4.20;99.90
27858;DHT22;16852;51.446;6.528;2022-12-05T15:11:44;4.20;99.90
27858;DHT22;16852;51.446;6.528;2022-12-05T15:13:46;4.20;99.90
27858;DHT22;16852;51.446;6.528;2022-12-05T15:16:12;4.20;99.90
27858;DHT22;16852;51.446;6.528;2022-12-05T15:22:53;4.20;99.90
27858;DHT22;16852;51.446;6.528;2022-12-05T15:24:53;4.10;99.90
27858;DHT22;16852;51.446;6.528;2022-12-05T15:26:58;4.20;99.90
27858;DHT22;16852;51.446;6.528;2022-12-05T15:33:50;4.10;99.90
27858;DHT22;16852;51.446;6.528;2022-12-05T15:35:52;4.10;99.90
27858;DHT22;16852;51.446;6.528;2022-12-05T15:37:57;4.10;99.90
27858;DHT22;16852;51.446;6.528;2022-12-05T15:40:17;4.10;99.90
27858;DHT22;16852;51.446;6.528;2022-12-05T15:42:45;4.10;99.90
27858;DHT22;16852;51.446;6.528;2022-12-05T15:44:45;4.10;99.90
27858;DHT22;16852;51.446;6.528;2022-12-05T15:46:55;4.10;99.90
27858;DHT22;16852;51.446;6.528;2022-12-05T15:48:57;4.10;99.90
27858;DHT22;16852;51.446;6.528;2022-12-05T15:51:00;4.10;99.90
27858;DHT22;16852;51.446;6.528;2022-12-05T15:55:17;4.00;99.90
27858;DHT22;16852;51.446;6.528;2022-12-05T15:57:33;4.00;99.90
27858;DHT22;16852;51.446;6.528;2022-12-05T15:59:49;4.00;99.90
27858;DHT22;16852;51.446;6.528;2022-12-05T16:01:59;3.90;99.90
27858;DHT22;16852;51.446;6.528;2022-12-05T16:04:13;4.00;99.90
27858;DHT22;16852;51.446;6.528;2022-12-05T16:06:34;3.90;99.90
27858;DHT22;16852;51.446;6.528;2022-12-05T16:08:43;3.90;99.90
27858;DHT22;16852;51.446;6.528;2022-12-05T16:10:44;3.90;99.90
27858;DHT22;16852;51.446;6.528;2022-12-05T16:12:46;4.00;99.90
27858;DHT22;16852;51.446;6.528;2022-12-05T16:14:50;3.90;99.90
27858;DHT22;16852;51.446;6.528;2022-12-05T16:16:59;3.90;99.90
27858;DHT22;16852;51.446;6.528;2022-12-05T16:19:11;3.90;99.90
27858;DHT22;16852;51.446;6.528;2022-12-05T16:21:35;3.90;99.90
27858;DHT22;16852;51.446;6.528;2022-12-05T16:23:37;3.80;99.90
27858;DHT22;16852;51.446;6.528;2022-12-05T16:25:37;3.80;99.90
27858;DHT22;16852;51.446;6.528;2022-12-05T16:27:38;3.80;99.90
27858;DHT22;16852;51.446;6.528;2022-12-05T16:29:39;3.80;99.90
27858;DHT22;16852;51.446;6.528;2022-12-05T16:31:40;3.80;99.90
27858;DHT22;16852;51.446;6.528;2022-12-05T16:33:41;3.80;99.90
27858;DHT22;16852;51.446;6.528;2022-12-05T16:35:43;3.80;99.90
27858;DHT22;16852;51.446;6.528;2022-12-05T16:37:48;3.80;99.90
27858;DHT22;16852;51.446;6.528;2022-12-05T16:39:49;3.80;99.90
27858;DHT22;16852;51.446;6.528;2022-12-05T16:41:50;3.80;99.90
27858;DHT22;16852;51.446;6.528;2022-12-05T16:43:51;3.80;99.90
27858;DHT22;16852;51.446;6.528;2022-12-05T16:45:54;3.80;99.90
27858;DHT22;16852;51.446;6.528;2022-12-05T16:47:57;3.80;99.90
27858;DHT22;16852;51.446;6.528;2022-12-05T16:50:28;3.80;99.90
27858;DHT22;16852;51.446;6.528;2022-12-05T16:52:30;3.80;99.90
27858;DHT22;16852;51.446;6.528;2022-12-05T16:54:31;3.80;99.90